Time;durP1;ratioP1;P1;durP2;ratioP2;P2;SDS_P1;SDS_P2;PMS_P1;PMS_P2;Temp;Humidity;BMP_temperature;BMP_pressure;BME280_temperature;BME280_humidity;BME280_pressure;Samples;Min_cycle;Max_cycle;Signal;HPM_P1;HPM_P2
2022/05/07 00:00:39;;;;;;;9.87;7.33;;;;;;;9.38;100.00;96775.09;5011170;28;20037;-76
2022/05/07 00:03:05;;;;;;;10.30;8.07;;;;;;;9.19;100.00;96780.34;5023703;28;20025;-77
2022/05/07 00:05:31;;;;;;;9.80;7.67;;;;;;;9.14;100.00;96788.63;5012468;28;20461;-77
2022/05/07 00:07:57;;;;;;;11.13;8.43;;;;;;;9.14;100.00;96772.06;5024400;28;20040;-76
2022/05/07 00:10:23;;;;;;;11.03;8.77;;;;;;;9.10;100.00;96776.75;5006731;28;20033;-77
2022/05/07 00:12:49;;;;;;;13.33;8.97;;;;;;;9.10;100.00;96778.53;5015920;28;20045;-76
2022/05/07 00:15:14;;;;;;;15.00;11.30;;;;;;;9.03;100.00;96774.81;5024045;28;20036;-77
2022/05/07 00:20:25;;;;;;;14.57;11.40;;;;;;;8.88;100.00;96766.50;5024366;28;20045;-77
2022/05/07 00:22:51;;;;;;;19.53;13.50;;;;;;;8.85;100.00;96775.47;5021854;28;20124;-76
2022/05/07 00:25:17;;;;;;;13.97;11.03;;;;;;;8.87;100.00;96772.72;5030347;28;20116;-76
2022/05/07 00:27:42;;;;;;;15.37;11.50;;;;;;;8.87;100.00;96770.91;5028641;28;20034;-76
2022/05/07 00:30:08;;;;;;;16.37;12.30;;;;;;;8.88;100.00;96766.50;4998428;28;20022;-76
2022/05/07 00:32:34;;;;;;;19.20;12.37;;;;;;;8.85;100.00;96772.84;5008982;28;20036;-77
2022/05/07 00:35:00;;;;;;;16.53;12.53;;;;;;;8.77;100.00;96761.38;5024216;28;20032;-76
2022/05/07 00:37:27;;;;;;;17.80;12.53;;;;;;;8.73;100.00;96774.75;5015397;28;20025;-76
2022/05/07 00:39:53;;;;;;;16.77;12.03;;;;;;;8.72;100.00;96774.91;5017151;28;20038;-77
2022/05/07 00:42:19;;;;;;;16.77;12.33;;;;;;;8.75;100.00;96764.13;5025738;28;20608;-76
2022/05/07 00:44:46;;;;;;;20.13;12.83;;;;;;;8.72;100.00;96757.38;5030539;28;20029;-76
2022/05/07 00:47:18;;;;;;;14.03;10.77;;;;;;;8.66;100.00;96762.31;5021881;28;20033;-77
2022/05/07 00:49:46;;;;;;;15.30;12.90;;;;;;;8.66;100.00;96760.53;5035834;28;20063;-76
2022/05/07 00:52:13;;;;;;;14.50;11.10;;;;;;;8.62;100.00;96760.94;5007245;28;20030;-77
2022/05/07 00:54:41;;;;;;;15.00;12.23;;;;;;;8.67;100.00;96753.47;5003576;28;20076;-77
2022/05/07 00:57:15;;;;;;;13.27;11.23;;;;;;;8.68;100.00;96749.88;5004913;28;20114;-77
2022/05/07 00:59:42;;;;;;;15.93;10.37;;;;;;;8.53;100.00;96749.44;5000276;28;20064;-77
2022/05/07 01:02:08;;;;;;;14.93;10.93;;;;;;;8.39;100.00;96747.19;5018546;28;20075;-77
2022/05/07 01:04:36;;;;;;;14.37;11.10;;;;;;;8.25;100.00;96754.44;5007685;28;20503;-77
2022/05/07 01:07:02;;;;;;;15.37;11.70;;;;;;;8.37;100.00;96751.72;5010056;28;20095;-76
2022/05/07 01:09:29;;;;;;;20.83;14.33;;;;;;;8.37;100.00;96749.09;5026688;28;20032;-77
2022/05/07 01:11:56;;;;;;;20.17;13.03;;;;;;;8.36;100.00;96748.25;5026177;28;20376;-76
2022/05/07 01:14:22;;;;;;;15.73;12.40;;;;;;;8.30;100.00;96745.34;5003284;28;20022;-76
2022/05/07 01:16:48;;;;;;;16.50;11.73;;;;;;;8.21;100.00;96745.16;5004814;28;20036;-76
2022/05/07 01:19:14;;;;;;;16.30;11.87;;;;;;;8.05;100.00;96744.84;5017038;28;20017;-76
2022/05/07 01:21:41;;;;;;;16.07;11.30;;;;;;;7.93;100.00;96749.31;5016600;28;20037;-76
2022/05/07 01:24:07;;;;;;;16.37;12.37;;;;;;;8.02;100.00;96743.31;5011074;28;20117;-77
2022/05/07 01:26:36;;;;;;;20.47;14.20;;;;;;;7.97;100.00;96749.88;5005638;28;20084;-77
2022/05/07 01:29:07;;;;;;;21.57;14.87;;;;;;;7.83;100.00;96745.00;5022133;28;20030;-77
2022/05/07 01:31:38;;;;;;;21.57;14.87;;;;;;;7.98;100.00;96741.06;5009085;28;20025;-76
2022/05/07 01:34:04;;;;;;;31.87;19.63;;;;;;;7.88;100.00;96740.19;5022497;28;20033;-77
2022/05/07 01:36:33;;;;;;;28.63;17.93;;;;;;;7.88;100.00;96745.41;5030093;28;20032;-77
2022/05/07 01:39:04;;;;;;;21.27;14.77;;;;;;;7.90;100.00;96744.34;5009631;28;20640;-77
2022/05/07 01:41:29;;;;;;;19.70;13.50;;;;;;;7.89;100.00;96747.91;5023087;28;20056;-77
2022/05/07 01:43:55;;;;;;;19.93;12.43;;;;;;;7.85;100.00;96736.06;5026255;28;20083;-77
2022/05/07 01:49:09;;;;;;;16.77;12.40;;;;;;;7.85;100.00;96743.91;5031745;28;20036;-77
2022/05/07 01:51:34;;;;;;;16.37;12.37;;;;;;;7.84;100.00;96749.25;5034336;28;20022;-75
2022/05/07 01:54:01;;;;;;;16.83;11.80;;;;;;;7.77;100.00;96741.09;5011301;28;20036;-77
2022/05/07 01:56:27;;;;;;;14.93;11.20;;;;;;;7.72;100.00;96744.09;5022595;28;20033;-77
2022/05/07 01:58:52;;;;;;;15.73;11.43;;;;;;;7.62;100.00;96742.41;5023811;28;20033;-77
2022/05/07 02:01:19;;;;;;;15.07;10.83;;;;;;;7.66;100.00;96736.75;5016961;28;20033;-76
2022/05/07 02:03:45;;;;;;;15.50;11.73;;;;;;;7.72;100.00;96745.91;5020269;28;20037;-77
2022/05/07 02:06:13;;;;;;;15.67;10.83;;;;;;;7.73;100.00;96737.91;5024876;28;20724;-77
2022/05/07 02:08:39;;;;;;;18.10;12.03;;;;;;;7.70;100.00;96738.16;5028615;28;20037;-77
2022/05/07 02:11:11;;;;;;;21.38;12.23;;;;;;;7.65;100.00;96729.88;5016846;28;20048;-77
2022/05/07 02:13:37;;;;;;;17.03;12.00;;;;;;;7.65;100.00;96735.13;5021191;28;20403;-77
2022/05/07 02:16:04;;;;;;;16.10;11.17;;;;;;;7.62;100.00;96731.94;5012966;28;20038;-77
2022/05/07 02:18:29;;;;;;;15.07;11.00;;;;;;;7.64;100.00;96735.22;5022649;28;20034;-77
2022/05/07 02:20:56;;;;;;;15.23;11.00;;;;;;;7.63;100.00;96737.03;5023015;28;20048;-77
2022/05/07 02:23:22;;;;;;;14.93;10.73;;;;;;;7.66;100.00;96734.16;5051312;28;20033;-77
2022/05/07 02:25:48;;;;;;;14.67;11.37;;;;;;;7.58;100.00;96733.97;5029132;28;20036;-77
2022/05/07 02:28:14;;;;;;;13.97;11.07;;;;;;;7.57;100.00;96724.44;5043037;28;20025;-77
2022/05/07 02:30:41;;;;;;;15.83;11.60;;;;;;;7.61;100.00;96732.88;5026750;28;20120;-77
2022/05/07 02:33:07;;;;;;;17.10;10.50;;;;;;;7.57;100.00;96734.91;5030722;28;20502;-77
2022/05/07 02:35:35;;;;;;;14.47;10.17;;;;;;;7.37;100.00;96733.94;5039333;28;20409;-77
2022/05/07 02:38:01;;;;;;;13.07;9.83;;;;;;;7.42;100.00;96733.59;5037128;28;20037;-76
2022/05/07 02:40:27;;;;;;;16.10;10.60;;;;;;;7.43;100.00;96730.00;5025243;28;20033;-77
2022/05/07 02:42:55;;;;;;;12.43;9.83;;;;;;;7.43;100.00;96735.25;5021226;28;20042;-76
2022/05/07 02:45:22;;;;;;;17.37;10.87;;;;;;;7.44;100.00;96729.03;5036302;28;20025;-76
2022/05/07 02:47:52;;;;;;;13.83;10.33;;;;;;;7.36;100.00;96732.28;5013142;28;20022;-76
2022/05/07 02:50:20;;;;;;;13.13;10.50;;;;;;;7.33;100.00;96732.53;5032884;28;20021;-77
2022/05/07 02:52:46;;;;;;;13.97;10.37;;;;;;;7.31;100.00;96724.84;5016761;28;20029;-77
2022/05/07 02:55:12;;;;;;;15.93;10.97;;;;;;;7.29;100.00;96723.31;5034684;28;20508;-76
2022/05/07 02:57:41;;;;;;;17.20;10.83;;;;;;;7.31;100.00;96727.47;5022804;28;20033;-77
2022/05/07 03:00:09;;;;;;;13.93;10.27;;;;;;;7.22;100.00;96722.97;5025193;28;20038;-76
2022/05/07 03:02:36;;;;;;;17.47;10.97;;;;;;;7.04;100.00;96730.56;5023377;28;20112;-76
2022/05/07 03:05:03;;;;;;;15.90;11.47;;;;;;;7.03;100.00;96726.25;5024755;28;20517;-77
2022/05/07 03:07:29;;;;;;;15.20;11.13;;;;;;;6.97;100.00;96726.75;5029488;28;20029;-77
2022/05/07 03:09:57;;;;;;;16.50;11.30;;;;;;;6.96;100.00;96735.56;5005812;28;20446;-77
2022/05/07 03:12:23;;;;;;;14.00;10.47;;;;;;;6.80;100.00;96737.75;4999477;28;20029;-77
2022/05/07 03:14:49;;;;;;;17.40;11.50;;;;;;;6.83;100.00;96732.28;5026376;28;20085;-76
2022/05/07 03:17:15;;;;;;;15.83;12.13;;;;;;;6.82;100.00;96734.06;5024307;28;20963;-75
2022/05/07 03:19:40;;;;;;;17.60;11.87;;;;;;;6.81;100.00;96735.03;5013609;28;20092;-76
2022/05/07 03:22:06;;;;;;;13.27;10.87;;;;;;;6.73;100.00;96732.19;5029547;28;20037;-77
2022/05/07 03:24:37;;;;;;;13.93;10.80;;;;;;;6.73;100.00;96737.41;5016279;28;20432;-76
2022/05/07 03:27:07;;;;;;;13.70;10.50;;;;;;;6.76;100.00;96736.34;5016875;28;20502;-77
2022/05/07 03:29:33;;;;;;;13.93;11.13;;;;;;;6.70;100.00;96736.81;5014013;28;20505;-77
2022/05/07 03:32:07;;;;;;;14.88;11.40;;;;;;;6.70;100.00;96742.88;5024395;28;20091;-77
2022/05/07 03:34:33;;;;;;;16.00;9.90;;;;;;;6.59;100.00;96737.69;5018538;28;20141;-76
2022/05/07 03:36:59;;;;;;;17.03;9.97;;;;;;;6.54;100.00;96743.28;5029579;28;20095;-76
2022/05/07 03:39:26;;;;;;;11.83;9.37;;;;;;;6.41;100.00;96741.78;5017353;28;20033;-76
2022/05/07 03:41:53;;;;;;;12.20;9.53;;;;;;;6.36;100.00;96737.72;5024848;28;20045;-77
2022/05/07 03:44:20;;;;;;;22.17;9.33;;;;;;;6.36;100.00;96742.13;5008479;28;20477;-76
2022/05/07 03:46:47;;;;;;;10.40;8.73;;;;;;;6.40;100.00;96746.16;5032923;28;20494;-77
2022/05/07 03:49:14;;;;;;;9.20;7.40;;;;;;;6.41;100.00;96747.81;5030507;28;20056;-77
2022/05/07 03:54:26;;;;;;;13.07;6.67;;;;;;;6.38;100.00;96748.91;5024256;28;20060;-77
2022/05/07 03:56:52;;;;;;;14.17;7.73;;;;;;;6.37;100.00;96746.38;5002594;28;20508;-77
2022/05/07 03:59:23;;;;;;;36.60;8.57;;;;;;;6.25;100.00;96753.41;5015649;28;20128;-76
2022/05/07 04:01:52;;;;;;;8.10;6.20;;;;;;;6.27;100.00;96751.53;5023346;28;20025;-76
2022/05/07 04:04:26;;;;;;;7.63;6.20;;;;;;;6.29;100.00;96749.59;5020985;28;20032;-77
2022/05/07 04:06:52;;;;;;;7.93;6.60;;;;;;;6.29;100.00;96751.38;5034588;28;20037;-77
2022/05/07 04:09:18;;;;;;;8.60;6.60;;;;;;;6.34;100.00;96750.09;5023234;28;20029;-76
2022/05/07 04:11:45;;;;;;;7.97;6.07;;;;;;;6.29;100.00;96749.59;5011648;28;20096;-77
2022/05/07 04:14:11;;;;;;;9.63;6.80;;;;;;;6.18;100.00;96754.84;5015088;28;20061;-77
2022/05/07 04:16:37;;;;;;;8.27;6.03;;;;;;;6.18;100.00;96752.22;5015753;28;20076;-77
2022/05/07 04:19:12;;;;;;;9.20;6.87;;;;;;;6.17;100.00;96758.41;5014367;28;20029;-76
2022/05/07 04:21:40;;;;;;;9.40;7.23;;;;;;;6.21;100.00;96752.00;5008173;28;20148;-77
2022/05/07 04:24:13;;;;;;;8.55;6.50;;;;;;;6.25;100.00;96757.81;5003116;28;20021;-77
2022/05/07 04:26:40;;;;;;;9.17;7.07;;;;;;;6.30;100.00;96747.81;5031308;28;20047;-77
2022/05/07 04:29:06;;;;;;;8.50;6.50;;;;;;;6.31;100.00;96758.16;5017804;28;20040;-77
2022/05/07 04:31:33;;;;;;;9.10;6.40;;;;;;;6.37;100.00;96743.78;5029677;28;20035;-77
2022/05/07 04:34:03;;;;;;;8.00;5.77;;;;;;;6.44;100.00;96757.19;5008182;28;20028;-76
2022/05/07 04:36:32;;;;;;;8.73;6.97;;;;;;;6.52;100.00;96752.19;5015650;28;20101;-76
2022/05/07 04:39:03;;;;;;;11.07;8.50;;;;;;;6.18;100.00;96754.03;5021367;28;20094;-77
2022/05/07 04:41:34;;;;;;;10.43;7.80;;;;;;;6.22;100.00;96758.03;5016125;28;20026;-77
2022/05/07 04:44:03;;;;;;;10.10;8.10;;;;;;;6.18;100.00;96757.47;5041513;28;20032;-76
2022/05/07 04:46:30;;;;;;;10.77;7.37;;;;;;;6.29;100.00;96760.06;5009259;28;20021;-76
2022/05/07 04:49:02;;;;;;;11.13;7.65;;;;;;;6.31;100.00;96766.00;5029026;28;20087;-77
2022/05/07 04:51:28;;;;;;;10.60;7.70;;;;;;;6.44;100.00;96772.84;5018624;28;20059;-76
2022/05/07 04:54:07;;;;;;;9.17;7.10;;;;;;;6.49;100.00;96778.56;5017730;28;20093;-75
2022/05/07 04:56:33;;;;;;;10.57;7.93;;;;;;;6.63;100.00;96773.06;5019495;28;20045;-77
2022/05/07 04:59:03;;;;;;;8.90;6.60;;;;;;;6.76;100.00;96776.38;5020443;28;20032;-77
2022/05/07 05:01:36;;;;;;;9.48;7.40;;;;;;;6.75;100.00;96779.94;5027562;28;20029;-76
2022/05/07 05:04:07;;;;;;;10.33;7.23;;;;;;;6.77;100.00;96772.84;5009060;28;20052;-77
2022/05/07 05:06:35;;;;;;;10.53;6.13;;;;;;;6.84;100.00;96771.38;5026672;28;20037;-77
2022/05/07 05:09:08;;;;;;;9.90;6.33;;;;;;;6.84;100.00;96773.13;5021321;28;20024;-77
2022/05/07 05:11:40;;;;;;;8.10;6.45;;;;;;;7.05;100.00;96778.44;5028339;28;20076;-77
2022/05/07 05:16:54;;;;;;;7.40;5.60;;;;;;;7.48;100.00;96774.94;5028386;28;20029;-77
2022/05/07 05:19:20;;;;;;;7.57;5.87;;;;;;;7.52;100.00;96776.34;5030208;28;20083;-76
2022/05/07 05:21:46;;;;;;;7.43;5.60;;;;;;;7.73;100.00;96782.41;5018448;28;20033;-77
2022/05/07 05:24:20;;;;;;;8.17;5.90;;;;;;;7.91;100.00;96777.41;5028149;28;20029;-77
2022/05/07 05:26:47;;;;;;;7.00;5.07;;;;;;;8.06;100.00;96775.31;5015480;28;20030;-77
2022/05/07 05:29:19;;;;;;;6.97;4.90;;;;;;;8.46;100.00;96770.13;5033448;28;20039;-77
2022/05/07 05:31:45;;;;;;;7.07;5.77;;;;;;;8.39;100.00;96776.03;5003110;28;20034;-76
2022/05/07 05:34:22;;;;;;;7.80;6.27;;;;;;;8.59;100.00;96780.38;5026256;28;20029;-77
2022/05/07 05:36:52;;;;;;;8.27;6.70;;;;;;;8.46;100.00;96782.41;5022247;28;20084;-76
2022/05/07 05:39:20;;;;;;;8.27;6.53;;;;;;;8.66;100.00;96783.28;5010561;28;20457;-76
2022/05/07 05:41:47;;;;;;;10.93;6.40;;;;;;;8.92;100.00;96783.59;5028931;28;20030;-77
2022/05/07 05:44:14;;;;;;;9.40;6.43;;;;;;;9.19;100.00;96781.19;5028490;28;20494;-76
2022/05/07 05:46:40;;;;;;;8.43;6.67;;;;;;;9.40;100.00;96785.47;5016225;28;20033;-76
2022/05/07 05:49:05;;;;;;;7.90;5.73;;;;;;;9.75;100.00;96782.25;5003425;28;20169;-75
2022/05/07 05:51:35;;;;;;;7.73;5.47;;;;;;;9.98;100.00;96790.63;5030491;28;20030;-76
2022/05/07 05:54:01;;;;;;;7.30;5.93;;;;;;;10.12;100.00;96787.56;5018716;28;20026;-77
2022/05/07 05:56:27;;;;;;;8.20;5.77;;;;;;;10.20;100.00;96786.03;5013156;28;20037;-76
2022/05/07 05:58:55;;;;;;;8.40;6.10;;;;;;;10.12;100.00;96782.31;5012103;28;20092;-77
2022/05/07 06:01:27;;;;;;;10.47;6.57;;;;;;;10.79;100.00;96784.81;5016689;28;20491;-76
2022/05/07 06:04:14;;;;;;;8.60;5.87;;;;;;;10.83;100.00;96776.50;5020191;28;20486;-76
2022/05/07 06:06:41;;;;;;;9.60;6.50;;;;;;;11.11;100.00;96780.91;5018000;28;20109;-76
2022/05/07 06:09:08;;;;;;;10.20;6.73;;;;;;;11.48;100.00;96775.50;5019360;28;20033;-76
2022/05/07 06:11:34;;;;;;;9.03;6.60;;;;;;;11.80;100.00;96772.28;5008616;28;20168;-77
2022/05/07 06:14:01;;;;;;;9.50;6.50;;;;;;;11.75;100.00;96769.28;5018109;28;20375;-77
2022/05/07 06:16:26;;;;;;;10.10;8.37;;;;;;;11.94;100.00;96776.22;5003601;28;20029;-77
2022/05/07 06:18:56;;;;;;;8.97;7.43;;;;;;;12.33;100.00;96773.16;5023980;28;20041;-77
2022/05/07 06:21:25;;;;;;;11.43;6.47;;;;;;;12.88;100.00;96773.56;5020500;28;20029;-77
2022/05/07 06:23:51;;;;;;;7.20;5.23;;;;;;;12.80;100.00;96768.25;5027082;28;20037;-76
2022/05/07 06:29:08;;;;;;;8.07;5.60;;;;;;;13.36;100.00;96774.69;5015834;28;20036;-76
2022/05/07 06:31:37;;;;;;;6.37;4.90;;;;;;;13.91;100.00;96774.00;5004092;28;20487;-77
2022/05/07 06:34:03;;;;;;;7.03;5.40;;;;;;;13.48;100.00;96784.91;5017755;28;20060;-77
2022/05/07 06:36:29;;;;;;;8.23;6.07;;;;;;;13.84;100.00;96780.97;5027148;28;20045;-76
2022/05/07 06:38:55;;;;;;;6.80;5.30;;;;;;;14.20;100.00;96767.38;5004627;28;20096;-75
2022/05/07 06:41:22;;;;;;;7.83;6.17;;;;;;;14.56;100.00;96773.09;5023866;28;20043;-75
2022/05/07 06:43:53;;;;;;;11.03;7.87;;;;;;;14.45;100.00;96772.59;5016738;28;20036;-75
2022/05/07 06:46:29;;;;;;;6.53;4.73;;;;;;;15.01;100.00;96773.38;5012769;28;20100;-76
2022/05/07 06:49:02;;;;;;;7.03;5.13;;;;;;;15.05;100.00;96779.97;5010985;28;20474;-76
2022/05/07 06:51:39;;;;;;;8.83;6.83;;;;;;;15.27;96.29;96773.91;5010083;28;20033;-76
2022/05/07 06:54:05;;;;;;;8.50;5.68;;;;;;;15.41;93.18;96780.25;5020747;28;20079;-76
2022/05/07 06:56:31;;;;;;;9.52;5.65;;;;;;;15.82;87.74;96777.34;5015182;28;20311;-76
2022/05/07 06:58:56;;;;;;;8.25;5.68;;;;;;;15.24;85.58;96779.56;5023290;28;20041;-76
2022/05/07 07:01:22;;;;;;;11.07;7.32;;;;;;;15.95;80.22;96774.91;5013193;28;20030;-76
2022/05/07 07:03:48;;;;;;;9.05;5.88;;;;;;;15.89;78.11;96777.44;5017058;28;20095;-76
2022/05/07 07:06:15;;;;;;;8.57;5.40;;;;;;;16.03;75.89;96779.31;5020201;28;20084;-76
2022/05/07 07:08:41;;;;;;;8.68;5.43;;;;;;;16.53;73.38;96771.66;5023628;28;21047;-75
2022/05/07 07:11:09;;;;;;;8.02;6.07;;;;;;;16.92;66.09;96768.75;5030762;28;20025;-77
2022/05/07 07:13:35;;;;;;;7.82;5.22;;;;;;;15.88;68.55;96773.16;5019518;28;20478;-77
2022/05/07 07:16:01;;;;;;;8.50;5.38;;;;;;;16.93;64.44;96771.22;5013238;28;20118;-77
2022/05/07 07:18:26;;;;;;;6.40;4.38;;;;;;;17.82;60.20;96770.94;5029119;28;20036;-77
2022/05/07 07:20:52;;;;;;;7.10;4.90;;;;;;;17.99;61.45;96766.16;5032811;28;20026;-76
2022/05/07 07:23:18;;;;;;;8.90;5.78;;;;;;;17.56;62.54;96770.66;5033589;28;20052;-77
2022/05/07 07:25:44;;;;;;;9.00;4.93;;;;;;;18.01;63.96;96764.16;5023631;28;20030;-77
2022/05/07 07:28:12;;;;;;;6.80;5.03;;;;;;;18.40;58.47;96757.44;5035744;28;20067;-76
2022/05/07 07:30:38;;;;;;;7.57;5.55;;;;;;;18.08;62.72;96762.34;5016112;28;20034;-77
2022/05/07 07:33:06;;;;;;;7.63;5.35;;;;;;;18.33;59.71;96760.06;5017454;28;20033;-76
2022/05/07 07:35:34;;;;;;;8.77;5.85;;;;;;;18.47;59.79;96752.97;5016455;28;20037;-77
2022/05/07 07:38:00;;;;;;;8.90;5.05;;;;;;;19.39;57.62;96754.41;5001451;28;20091;-77
2022/05/07 07:40:26;;;;;;;9.95;5.65;;;;;;;18.54;58.58;96758.34;5014672;28;20087;-77
2022/05/07 07:42:52;;;;;;;7.68;5.65;;;;;;;19.04;61.60;96751.84;5023685;28;20042;-77
2022/05/07 07:48:04;;;;;;;7.68;4.78;;;;;;;19.82;58.16;96746.09;5025970;28;20029;-77
2022/05/07 07:50:32;;;;;;;8.18;5.75;;;;;;;19.37;59.90;96753.78;5036078;28;20018;-77
2022/05/07 07:53:03;;;;;;;8.30;5.43;;;;;;;20.74;55.49;96743.50;5019299;28;20030;-77
2022/05/07 07:55:29;;;;;;;8.70;5.90;;;;;;;20.70;54.84;96749.28;5019626;28;20531;-77
2022/05/07 07:57:56;;;;;;;8.98;5.47;;;;;;;19.85;56.00;96743.00;5027863;28;20043;-77
2022/05/07 08:00:23;;;;;;;8.52;5.00;;;;;;;20.47;55.03;96733.69;5026227;28;20095;-77
2022/05/07 08:02:55;;;;;;;9.82;5.65;;;;;;;20.85;53.57;96740.16;5034099;28;20082;-77
2022/05/07 08:05:23;;;;;;;8.25;4.72;;;;;;;21.22;52.16;96738.56;5009610;28;20033;-76
2022/05/07 08:13:18;;;;;;;8.82;5.38;;;;;;;20.74;51.70;96733.63;5015055;28;20632;-78
2022/05/07 08:15:45;;;;;;;8.15;5.00;;;;;;;21.61;50.28;96739.41;5029597;28;20045;-77
2022/05/07 08:18:12;;;;;;;7.60;5.43;;;;;;;21.11;50.06;96737.38;5020373;28;20323;-77
2022/05/07 08:20:38;;;;;;;11.05;5.30;;;;;;;21.04;50.82;96741.13;5024291;28;20026;-78
2022/05/07 08:23:04;;;;;;;9.55;5.93;;;;;;;22.13;48.50;96738.16;5029499;28;20086;-77
2022/05/07 08:25:30;;;;;;;8.95;5.40;;;;;;;22.77;46.02;96733.41;5024774;28;20029;-78
2022/05/07 08:27:56;;;;;;;7.68;5.05;;;;;;;22.36;46.18;96731.38;5017701;28;20040;-77
2022/05/07 08:30:22;;;;;;;10.02;5.57;;;;;;;22.28;46.92;96740.53;5021147;28;20048;-77
2022/05/07 08:32:48;;;;;;;13.30;8.13;;;;;;;22.30;44.25;96734.94;5010978;28;20116;-79
2022/05/07 08:35:14;;;;;;;12.98;9.02;;;;;;;23.56;41.05;96733.44;5033337;28;20071;-79
2022/05/07 08:37:40;;;;;;;9.63;5.65;;;;;;;22.44;42.23;96733.78;5024820;28;20037;-79
2022/05/07 08:40:06;;;;;;;12.43;8.18;;;;;;;22.55;42.66;96729.53;5023155;28;20025;-79
2022/05/07 08:42:36;;;;;;;10.18;6.40;;;;;;;23.04;41.93;96733.94;5013674;28;20045;-79
2022/05/07 08:45:02;;;;;;;7.47;4.32;;;;;;;23.27;41.11;96733.22;5031350;28;20042;-80
2022/05/07 08:47:29;;;;;;;6.65;4.53;;;;;;;22.56;40.67;96736.53;5008676;28;20124;-79
2022/05/07 08:49:55;;;;;;;9.23;4.55;;;;;;;22.88;39.62;96734.53;5022355;28;20056;-79
2022/05/07 08:52:22;;;;;;;7.68;4.50;;;;;;;22.31;40.99;96745.44;5024471;28;20057;-79
2022/05/07 08:54:47;;;;;;;10.68;5.88;;;;;;;22.80;39.66;96730.28;5000939;28;20722;-78
2022/05/07 08:57:14;;;;;;;6.45;3.85;;;;;;;23.58;38.26;96733.22;5004225;28;20030;-79
2022/05/07 08:59:41;;;;;;;6.60;4.75;;;;;;;23.02;39.38;96727.16;5014080;28;20041;-79
2022/05/07 09:02:07;;;;;;;6.85;4.38;;;;;;;21.41;41.92;96737.66;5034779;28;20037;-79
2022/05/07 09:04:32;;;;;;;5.88;3.80;;;;;;;22.18;41.55;96729.50;5009318;28;20514;-79
2022/05/07 09:07:03;;;;;;;8.02;4.07;;;;;;;22.09;41.86;96733.44;5021252;28;20463;-79
2022/05/07 09:09:31;;;;;;;6.35;4.20;;;;;;;23.06;39.61;96728.34;5030888;28;20072;-78
2022/05/07 09:11:58;;;;;;;8.90;4.63;;;;;;;22.55;40.18;96724.97;5027345;28;20022;-79
2022/05/07 09:14:31;;;;;;;9.63;4.82;;;;;;;23.27;39.39;96722.50;5020579;28;20104;-79
2022/05/07 09:17:00;;;;;;;;;;;;;;;23.52;38.56;96722.34;5020212;28;20541;-79
2022/05/07 09:19:27;;;;;;;11.00;4.47;;;;;;;22.45;38.79;96723.88;5021976;28;19912;-79
2022/05/07 09:22:07;;;;;;;8.98;4.72;;;;;;;22.65;39.51;96724.47;5013589;28;20491;-79
2022/05/07 09:24:33;;;;;;;6.78;4.18;;;;;;;22.45;40.42;96726.56;5034793;28;20041;-79
2022/05/07 09:26:59;;;;;;;8.68;5.22;;;;;;;24.46;37.30;96711.72;5037357;28;20499;-79
2022/05/07 09:29:28;;;;;;;9.63;5.10;;;;;;;23.52;37.24;96718.84;5027829;28;20049;-79
2022/05/07 09:32:17;;;;;;;7.22;4.32;;;;;;;21.62;40.39;96735.66;5018485;28;20077;-78
2022/05/07 09:37:37;;;;;;;8.38;4.65;;;;;;;23.89;37.02;96724.91;5025390;28;20025;-79
2022/05/07 09:40:07;;;;;;;8.52;4.38;;;;;;;22.66;39.82;96720.72;5012451;28;20044;-79
2022/05/07 09:42:36;;;;;;;10.70;4.90;;;;;;;23.45;37.15;96718.13;5032572;28;20390;-79
2022/05/07 09:45:03;;;;;;;8.50;4.38;;;;;;;21.48;40.20;96723.44;5020188;28;20034;-79
2022/05/07 09:47:30;;;;;;;6.97;4.68;;;;;;;21.35;40.90;96719.78;5021448;28;20489;-79
2022/05/07 09:58:15;;;;;;;7.45;4.80;;;;;;;20.93;42.02;96714.03;5027729;28;20053;-79
2022/05/07 10:01:13;;;;;;;9.60;5.43;;;;;;;21.41;41.24;96713.59;5018869;28;20188;-79
2022/05/07 10:04:04;;;;;;;10.27;4.88;;;;;;;22.17;40.78;96705.63;5023952;28;20050;-79
2022/05/07 10:06:45;;;;;;;5.53;4.05;;;;;;;22.29;40.86;96704.63;5028620;28;20061;-79
2022/05/07 10:09:32;;;;;;;6.47;4.78;;;;;;;22.23;40.57;96705.53;5040803;28;20105;-79
2022/05/07 10:11:59;;;;;;;9.75;4.82;;;;;;;21.15;40.59;96708.34;5027851;28;20087;-78
2022/05/07 10:14:31;;;;;;;7.30;4.72;;;;;;;21.51;40.23;96701.59;5031195;28;20038;-79
2022/05/07 10:17:11;;;;;;;7.97;5.30;;;;;;;20.69;41.96;96706.72;5018352;28;20049;-78
2022/05/07 10:19:41;;;;;;;10.32;4.78;;;;;;;20.61;44.55;96704.28;5019030;28;20139;-77
2022/05/07 10:22:25;;;;;;;9.57;5.90;;;;;;;20.31;43.66;96702.06;5026824;28;20042;-78
2022/05/07 10:25:08;;;;;;;10.02;5.10;;;;;;;20.29;44.98;96703.31;5031242;28;20041;-78
2022/05/07 10:27:44;;;;;;;7.70;4.97;;;;;;;19.89;44.79;96709.53;5014413;28;20030;-77
2022/05/07 10:30:16;;;;;;;14.63;8.90;;;;;;;20.73;42.53;96710.63;5034101;28;20371;-74
2022/05/07 10:32:57;;;;;;;11.80;7.65;;;;;;;20.95;41.92;96706.59;5039789;28;20467;-78
2022/05/07 10:35:42;;;;;;;9.38;5.45;;;;;;;19.99;43.67;96690.44;5028721;28;20049;-79
2022/05/07 10:38:10;;;;;;;7.05;5.00;;;;;;;20.61;43.27;96699.75;5019142;28;20037;-78
2022/05/07 10:40:36;;;;;;;9.85;5.68;;;;;;;21.16;42.37;96691.28;5015178;28;20038;-78
2022/05/07 10:43:03;;;;;;;8.07;5.00;;;;;;;22.08;40.42;96686.28;5024649;28;20028;-78
2022/05/07 10:45:40;;;;;;;7.72;5.40;;;;;;;22.45;39.31;96687.16;5043290;28;20037;-79
2022/05/07 10:48:18;;;;;;;8.93;5.93;;;;;;;21.12;41.98;96690.88;5038064;28;20040;-79
2022/05/07 10:50:57;;;;;;;9.32;4.95;;;;;;;21.74;40.06;96690.31;5002057;28;20609;-79
2022/05/07 10:53:23;;;;;;;7.43;5.05;;;;;;;20.98;40.14;96696.53;5015361;28;20052;-78
2022/05/07 10:55:55;;;;;;;8.48;6.05;;;;;;;21.63;40.66;96689.16;5029234;28;20026;-78
2022/05/07 10:58:38;;;;;;;9.50;5.50;;;;;;;21.76;40.96;96689.03;5008262;28;20061;-77
2022/05/07 11:01:38;;;;;;;9.75;5.05;;;;;;;21.32;39.65;96688.09;5016249;28;20112;-77
2022/05/07 11:04:34;;;;;;;8.48;5.38;;;;;;;20.61;41.74;96685.56;5034043;28;20042;-77
2022/05/07 11:07:04;;;;;;;8.90;4.68;;;;;;;21.33;40.40;96689.75;5019614;28;20140;-77
2022/05/07 11:09:51;;;;;;;10.35;5.10;;;;;;;21.37;42.18;96688.31;5005342;28;20030;-78
2022/05/07 11:12:17;;;;;;;9.70;5.60;;;;;;;21.55;40.90;96681.38;5017065;28;20042;-78
2022/05/07 11:14:43;;;;;;;8.32;5.53;;;;;;;20.92;40.48;96677.66;5038406;28;20041;-77
2022/05/07 11:17:10;;;;;;;9.05;5.30;;;;;;;20.94;42.13;96686.25;5034588;28;20045;-79
2022/05/07 11:19:37;;;;;;;9.88;5.50;;;;;;;21.40;41.14;96679.03;5024982;28;20029;-78
2022/05/07 11:22:08;;;;;;;9.77;5.22;;;;;;;21.50;40.94;96673.19;5032606;28;20048;-78
2022/05/07 11:24:34;;;;;;;9.13;5.70;;;;;;;21.59;42.07;96675.38;5025108;28;20033;-77
2022/05/07 11:27:02;;;;;;;9.50;5.13;;;;;;;22.43;40.49;96669.66;5028162;28;20041;-77
2022/05/07 11:29:33;;;;;;;8.95;5.57;;;;;;;22.31;41.62;96675.78;5049473;28;20025;-77
2022/05/07 11:32:04;;;;;;;10.90;5.40;;;;;;;22.00;40.36;96670.47;5041877;28;20056;-78
2022/05/07 11:34:41;;;;;;;8.75;5.53;;;;;;;22.46;39.90;96662.00;5031004;28;20041;-77
2022/05/07 11:37:22;;;;;;;8.82;5.28;;;;;;;21.68;40.51;96667.91;5026382;28;20033;-77
2022/05/07 11:39:58;;;;;;;7.63;5.53;;;;;;;22.39;41.25;96657.75;5030734;28;20044;-77
2022/05/07 11:42:33;;;;;;;9.95;5.07;;;;;;;22.09;40.31;96664.63;5031691;28;20109;-77
2022/05/07 11:47:56;;;;;;;7.32;5.13;;;;;;;21.87;38.96;96658.88;5030742;28;20025;-77
2022/05/07 11:50:24;;;;;;;8.23;5.68;;;;;;;21.96;38.93;96653.22;5035905;28;20025;-77
2022/05/07 11:52:52;;;;;;;7.00;4.50;;;;;;;21.49;39.32;96658.16;5019131;28;20047;-77
2022/05/07 11:55:24;;;;;;;6.65;4.63;;;;;;;21.75;39.84;96657.94;5037959;28;20033;-77
2022/05/07 11:57:50;;;;;;;11.18;6.07;;;;;;;21.80;39.77;96655.44;5014566;28;20048;-77
2022/05/07 12:00:21;;;;;;;8.02;5.18;;;;;;;21.79;39.84;96655.66;5034329;28;20041;-77
2022/05/07 12:02:51;;;;;;;8.88;4.93;;;;;;;22.47;38.60;96639.53;5012446;28;20049;-76
2022/05/07 12:05:18;;;;;;;11.50;7.22;;;;;;;22.06;41.17;96645.50;5029866;28;20119;-77
2022/05/07 12:07:48;;;;;;;6.97;5.00;;;;;;;21.12;39.85;96656.09;5028864;28;20051;-77
2022/05/07 12:10:15;;;;;;;6.97;4.85;;;;;;;21.35;41.90;96647.56;5029159;28;20037;-77